createdAt,value
2022-12-18T00:00:31.538Z,100194.80
2022-12-18T00:03:29.007Z,100200.00
2022-12-18T00:06:05.394Z,100204.80
2022-12-18T00:08:41.706Z,100208.20
2022-12-18T00:11:22.498Z,100208.40
2022-12-18T00:14:01.710Z,100206.00
2022-12-18T00:16:38.328Z,100214.20
2022-12-18T00:19:16.480Z,100212.40
2022-12-18T00:21:52.544Z,100218.60
2022-12-18T00:24:28.790Z,100225.80
2022-12-18T00:27:04.965Z,100230.80
2022-12-18T00:29:42.438Z,100241.00
2022-12-18T00:32:18.724Z,100246.60
2022-12-18T00:34:54.680Z,100246.20
2022-12-18T00:37:30.658Z,100251.20
2022-12-18T00:40:08.547Z,100248.40
2022-12-18T00:43:00.023Z,100249.80
2022-12-18T00:45:37.170Z,100255.40
2022-12-18T00:48:13.288Z,100258.40
2022-12-18T00:50:51.095Z,100260.80
2022-12-18T00:53:27.161Z,100266.20
2022-12-18T00:56:03.008Z,100271.20
2022-12-18T00:58:39.059Z,100274.40
2022-12-18T01:01:15.667Z,100279.00
2022-12-18T01:03:51.933Z,100282.80
2022-12-18T01:06:29.793Z,100284.80
2022-12-18T01:09:06.160Z,100290.20
2022-12-18T01:11:45.149Z,100289.40
2022-12-18T01:14:21.237Z,100296.40
2022-12-18T01:16:57.115Z,100305.60
2022-12-18T01:19:33.159Z,100297.60
2022-12-18T01:22:09.218Z,100307.00
2022-12-18T01:24:45.074Z,100302.00
2022-12-18T01:27:21.049Z,100306.60
2022-12-18T01:29:57.788Z,100302.80
2022-12-18T01:32:36.254Z,100306.80
2022-12-18T01:35:13.945Z,100310.60
2022-12-18T01:37:50.008Z,100316.60
2022-12-18T01:40:26.275Z,100307.40
2022-12-18T01:43:02.298Z,100310.20
2022-12-18T01:45:38.280Z,100310.60
2022-12-18T01:48:14.554Z,100313.60
2022-12-18T01:50:51.374Z,100317.20
2022-12-18T01:53:28.880Z,100326.20
2022-12-18T01:56:05.568Z,100325.20
2022-12-18T01:58:52.570Z,100333.80
2022-12-18T02:01:31.394Z,100339.40
2022-12-18T02:04:29.243Z,100340.60
2022-12-18T02:07:19.235Z,100341.40
2022-12-18T02:10:01.254Z,100343.20
2022-12-18T02:12:50.581Z,100351.40
2022-12-18T02:15:38.509Z,100357.60
2022-12-18T02:18:21.427Z,100355.80
2022-12-18T02:21:14.898Z,100361.20
2022-12-18T02:24:05.983Z,100362.00
2022-12-18T02:26:50.744Z,100367.40
2022-12-18T02:29:31.888Z,100372.00
2022-12-18T02:32:15.938Z,100370.40
2022-12-18T02:34:55.325Z,100373.40
2022-12-18T02:37:35.045Z,100375.40
2022-12-18T02:40:16.290Z,100381.20
2022-12-18T02:42:52.274Z,100376.60
2022-12-18T02:45:28.254Z,100379.60
2022-12-18T02:48:04.882Z,100385.20
2022-12-18T02:50:53.280Z,100392.40
2022-12-18T02:53:40.257Z,100399.60
2022-12-18T02:56:23.647Z,100396.00
2022-12-18T02:59:08.536Z,100395.20
2022-12-18T03:02:01.275Z,100403.40
2022-12-18T03:04:49.919Z,100404.40
2022-12-18T03:07:40.193Z,100407.00
2022-12-18T03:10:26.571Z,100406.40
2022-12-18T03:13:08.030Z,100404.80
2022-12-18T03:15:50.243Z,100411.20
2022-12-18T03:18:32.583Z,100414.40
2022-12-18T03:21:12.777Z,100421.00
2022-12-18T03:23:53.799Z,100421.00
2022-12-18T03:26:31.804Z,100423.80
2022-12-18T03:29:16.153Z,100420.40
2022-12-18T03:31:58.810Z,100421.80
2022-12-18T03:34:40.595Z,100427.00
2022-12-18T03:37:17.431Z,100431.60
2022-12-18T03:39:53.970Z,100435.00
2022-12-18T03:42:41.330Z,100438.40
2022-12-18T03:45:29.511Z,100442.00
2022-12-18T03:48:16.835Z,100450.00
2022-12-18T03:51:01.791Z,100454.00
2022-12-18T03:53:52.120Z,100460.40
2022-12-18T03:56:34.068Z,100458.00
2022-12-18T03:59:12.439Z,100458.60
2022-12-18T04:01:54.743Z,100454.80
2022-12-18T04:04:34.856Z,100461.00
2022-12-18T04:07:14.887Z,100467.80
2022-12-18T04:09:56.130Z,100471.40
2022-12-18T04:12:34.257Z,100467.60
2022-12-18T04:15:13.721Z,100468.00
2022-12-18T04:17:53.104Z,100469.80
2022-12-18T04:20:31.645Z,100468.40
2022-12-18T04:23:08.266Z,100470.60
2022-12-18T04:25:44.332Z,100473.20
2022-12-18T04:28:24.477Z,100469.60
2022-12-18T04:31:00.312Z,100475.80
2022-12-18T04:33:37.231Z,100480.20
2022-12-18T04:36:14.449Z,100484.80
2022-12-18T04:38:51.003Z,100491.00
2022-12-18T04:41:26.923Z,100492.80
2022-12-18T04:44:02.871Z,100498.60
2022-12-18T04:46:38.857Z,100499.00
2022-12-18T04:49:15.647Z,100500.60
2022-12-18T04:51:51.962Z,100504.00
2022-12-18T04:54:27.888Z,100501.20
2022-12-18T04:57:04.021Z,100513.40
2022-12-18T04:59:40.051Z,100515.00
2022-12-18T05:02:16.054Z,100519.40
2022-12-18T05:04:52.462Z,100524.80
2022-12-18T05:07:28.537Z,100522.60
2022-12-18T05:10:04.800Z,100527.20
2022-12-18T05:12:56.108Z,100533.00
2022-12-18T05:15:35.054Z,100532.20
2022-12-18T05:18:11.287Z,100534.60
2022-12-18T05:20:47.252Z,100538.60
2022-12-18T05:23:25.024Z,100540.60
2022-12-18T05:26:04.348Z,100540.60
2022-12-18T05:28:41.252Z,100551.60
2022-12-18T05:31:17.605Z,100548.40
2022-12-18T05:33:56.246Z,100547.60
2022-12-18T05:36:32.182Z,100549.60
2022-12-18T05:39:08.906Z,100553.00
2022-12-18T05:41:44.786Z,100552.00
2022-12-18T05:44:20.797Z,100551.40
2022-12-18T05:46:57.073Z,100559.00
2022-12-18T05:49:33.116Z,100565.20
2022-12-18T05:52:10.043Z,100568.00
2022-12-18T05:54:46.046Z,100565.00
2022-12-18T05:57:22.013Z,100566.60
2022-12-18T05:59:57.861Z,100572.00
2022-12-18T06:02:33.818Z,100576.00
2022-12-18T06:05:12.160Z,100579.00
2022-12-18T06:07:48.087Z,100585.80
2022-12-18T06:10:24.209Z,100583.60
2022-12-18T06:13:00.003Z,100588.00
2022-12-18T06:15:38.275Z,100593.00
2022-12-18T06:18:14.119Z,100597.40
2022-12-18T06:20:58.379Z,100605.00
2022-12-18T06:23:34.253Z,100610.00
2022-12-18T06:26:14.708Z,100607.40
2022-12-18T06:28:50.887Z,100609.20
2022-12-18T06:31:27.409Z,100606.20
2022-12-18T06:34:05.932Z,100610.00
2022-12-18T06:36:41.825Z,100617.60
2022-12-18T06:39:17.883Z,100617.60
2022-12-18T06:41:53.831Z,100617.80
2022-12-18T06:44:29.896Z,100626.40
2022-12-18T06:47:05.834Z,100633.00
2022-12-18T06:49:41.808Z,100642.20
2022-12-18T06:52:17.785Z,100638.80
2022-12-18T06:54:53.725Z,100638.00
2022-12-18T06:57:30.174Z,100644.80
2022-12-18T07:00:08.814Z,100651.60
2022-12-18T07:02:44.948Z,100655.60
2022-12-18T07:05:21.367Z,100656.40
2022-12-18T07:07:57.222Z,100658.20
2022-12-18T07:10:33.150Z,100666.20
2022-12-18T07:13:08.958Z,100672.60
2022-12-18T07:15:44.888Z,100674.00
2022-12-18T07:18:21.340Z,100674.40
2022-12-18T07:20:57.256Z,100675.40
2022-12-18T07:23:33.884Z,100682.00
2022-12-18T07:26:13.326Z,100682.00
2022-12-18T07:28:49.654Z,100686.20
2022-12-18T07:31:28.164Z,100688.60
2022-12-18T07:34:04.234Z,100694.40
2022-12-18T07:36:40.229Z,100698.00
2022-12-18T07:39:17.677Z,100704.00
2022-12-18T07:42:07.405Z,100709.80
2022-12-18T07:44:43.535Z,100718.00
2022-12-18T07:47:19.517Z,100718.00
2022-12-18T07:49:55.573Z,100727.40
2022-12-18T07:52:31.628Z,100727.40
2022-12-18T07:55:09.449Z,100727.40
2022-12-18T07:57:55.426Z,100732.00
2022-12-18T08:00:33.002Z,100733.60
2022-12-18T08:03:08.867Z,100738.00
2022-12-18T08:05:44.752Z,100740.20
2022-12-18T08:08:20.713Z,100739.60
2022-12-18T08:10:56.768Z,100734.60
2022-12-18T08:13:33.360Z,100738.40
2022-12-18T08:16:11.938Z,100743.40
2022-12-18T08:18:47.868Z,100743.00
2022-12-18T08:21:27.613Z,100747.80
2022-12-18T08:24:05.268Z,100749.40
2022-12-18T08:26:41.228Z,100757.80
2022-12-18T08:29:21.478Z,100758.00
2022-12-18T08:31:57.641Z,100758.20
2022-12-18T08:34:33.701Z,100765.80
2022-12-18T08:37:09.657Z,100764.40
2022-12-18T08:39:45.814Z,100764.40
2022-12-18T08:42:39.443Z,100767.40
2022-12-18T08:45:16.177Z,100764.20
2022-12-18T08:47:52.513Z,100767.00
2022-12-18T08:50:28.396Z,100770.60
2022-12-18T08:53:04.646Z,100772.00
2022-12-18T08:55:41.448Z,100777.60
2022-12-18T08:58:19.012Z,100774.80
2022-12-18T09:00:55.323Z,100778.60
2022-12-18T09:03:31.792Z,100780.20
2022-12-18T09:06:09.110Z,100775.60
2022-12-18T09:08:45.193Z,100785.40
2022-12-18T09:11:29.922Z,100789.00
2022-12-18T09:14:06.557Z,100788.60
2022-12-18T09:16:42.962Z,100782.00
2022-12-18T09:19:20.375Z,100784.20
2022-12-18T09:21:56.326Z,100785.00
2022-12-18T09:24:32.291Z,100789.40
2022-12-18T09:27:08.345Z,100788.60
2022-12-18T09:29:44.714Z,100792.80
2022-12-18T09:32:22.578Z,100791.00
2022-12-18T09:34:58.799Z,100794.20
2022-12-18T09:37:34.737Z,100793.60
2022-12-18T09:40:20.252Z,100795.60
2022-12-18T09:43:02.832Z,100793.60
2022-12-18T09:45:47.077Z,100795.40
2022-12-18T09:48:32.554Z,100795.40
2022-12-18T09:51:17.906Z,100802.40
2022-12-18T09:54:03.887Z,100799.40
2022-12-18T09:56:46.552Z,100794.80
2022-12-18T09:59:34.551Z,100795.60
2022-12-18T10:02:26.310Z,100797.40
2022-12-18T10:05:13.963Z,100799.80
2022-12-18T10:08:05.984Z,100796.80
2022-12-18T10:10:49.417Z,100796.20
2022-12-18T10:13:41.418Z,100794.40
2022-12-18T10:16:21.741Z,100799.40
2022-12-18T10:19:39.102Z,100800.20
2022-12-18T10:22:37.677Z,100796.60
2022-12-18T10:25:27.741Z,100801.00
2022-12-18T10:28:16.049Z,100804.20
2022-12-18T10:30:52.216Z,100803.80
2022-12-18T10:33:33.512Z,100802.00
2022-12-18T10:36:11.392Z,100805.60
2022-12-18T10:38:48.743Z,100791.60
2022-12-18T10:41:33.866Z,100791.40
2022-12-18T10:44:26.870Z,100785.40
2022-12-18T10:47:16.461Z,100785.60
2022-12-18T10:49:58.409Z,100789.60
2022-12-18T10:52:35.029Z,100793.20
2022-12-18T10:55:21.895Z,100791.00
2022-12-18T10:58:22.162Z,100791.00
2022-12-18T11:01:17.917Z,100787.40
2022-12-18T11:04:18.500Z,100782.20
2022-12-18T11:07:04.564Z,100779.40
2022-12-18T11:09:43.740Z,100779.60
2022-12-18T11:12:26.440Z,100777.60
2022-12-18T11:15:01.997Z,100778.60
2022-12-18T11:17:40.399Z,100770.60
2022-12-18T11:20:36.243Z,100777.40
2022-12-18T11:23:19.221Z,100763.60
2022-12-18T11:26:04.388Z,100755.80
2022-12-18T11:28:48.605Z,100758.80
2022-12-18T11:31:32.442Z,100764.00
2022-12-18T11:34:34.274Z,100756.40
2022-12-18T11:37:13.712Z,100753.60
2022-12-18T11:39:55.265Z,100757.20
2022-12-18T11:42:41.597Z,100758.20
2022-12-18T11:45:37.488Z,100763.40
2022-12-18T11:48:23.687Z,100771.20
2022-12-18T11:51:01.949Z,100770.20
2022-12-18T11:53:39.272Z,100773.00
2022-12-18T11:56:34.795Z,100776.80
2022-12-18T11:59:32.608Z,100779.80
2022-12-18T12:02:39.471Z,100771.80
2022-12-18T12:05:48.791Z,100772.80
2022-12-18T12:08:40.094Z,100777.80
2022-12-18T12:11:29.600Z,100775.40
2022-12-18T12:14:33.830Z,100771.40
2022-12-18T12:17:22.478Z,100766.40
2022-12-18T12:20:10.026Z,100769.80
2022-12-18T12:23:02.627Z,100771.20
2022-12-18T12:25:50.589Z,100767.60
2022-12-18T12:29:00.105Z,100767.80
2022-12-18T12:31:58.611Z,100772.20
2022-12-18T12:34:47.550Z,100783.20
2022-12-18T12:37:41.056Z,100785.60
2022-12-18T12:40:51.388Z,100792.60
2022-12-18T12:43:40.410Z,100796.00
2022-12-18T12:46:23.996Z,100797.80
2022-12-18T12:49:07.371Z,100805.40
2022-12-18T12:51:49.186Z,100807.80
2022-12-18T12:54:26.950Z,100809.60
2022-12-18T12:57:14.154Z,100812.20
2022-12-18T13:00:07.473Z,100818.20
2022-12-18T13:02:53.492Z,100824.80
2022-12-18T13:05:41.702Z,100819.60
2022-12-18T13:08:33.279Z,100826.20
2022-12-18T13:11:59.795Z,100830.00
2022-12-18T13:14:40.179Z,100829.20
2022-12-18T13:17:34.751Z,100831.20
2022-12-18T13:20:17.801Z,100834.60
2022-12-18T13:22:56.514Z,100836.00
2022-12-18T13:25:39.657Z,100835.80
2022-12-18T13:28:18.879Z,100846.00
2022-12-18T13:31:01.530Z,100846.20
2022-12-18T13:34:24.292Z,100847.60
2022-12-18T13:36:44.818Z,100847.20
2022-12-18T13:39:38.528Z,100852.80
2022-12-18T13:43:06.185Z,100862.60
2022-12-18T13:46:04.043Z,100857.80
2022-12-18T13:48:50.773Z,100862.40
2022-12-18T13:51:29.885Z,100867.60
2022-12-18T13:54:19.878Z,100868.00
2022-12-18T13:56:56.148Z,100875.20
2022-12-18T13:59:39.874Z,100877.40
2022-12-18T14:02:23.720Z,100881.40
2022-12-18T14:05:00.322Z,100879.80
2022-12-18T14:07:41.794Z,100878.60
2022-12-18T14:13:30.144Z,100885.20
2022-12-18T14:16:10.107Z,100887.20
2022-12-18T14:18:56.369Z,100888.20
2022-12-18T14:21:39.780Z,100898.00
2022-12-18T14:24:23.678Z,100904.60
2022-12-18T14:27:23.005Z,100896.60
2022-12-18T14:29:59.344Z,100896.20
2022-12-18T14:32:35.124Z,100901.40
2022-12-18T14:35:21.938Z,100904.00
2022-12-18T14:38:20.516Z,100903.80
2022-12-18T14:41:02.903Z,100900.80
2022-12-18T14:43:43.120Z,100901.40
2022-12-18T14:46:45.337Z,100904.00
2022-12-18T14:49:33.681Z,100906.80
2022-12-18T14:52:31.814Z,100909.20
2022-12-18T14:55:16.155Z,100914.20
2022-12-18T14:57:57.535Z,100912.20
2022-12-18T15:00:34.100Z,100908.00
2022-12-18T15:03:15.466Z,100915.40
2022-12-18T15:05:52.294Z,100911.20
2022-12-18T15:08:41.870Z,100907.80
2022-12-18T15:14:43.389Z,100906.60
2022-12-18T15:17:26.714Z,100906.00
2022-12-18T15:20:15.662Z,100910.60
2022-12-18T15:22:52.535Z,100911.00
2022-12-18T15:25:39.647Z,100913.00
2022-12-18T15:28:27.859Z,100914.40
2022-12-18T15:31:30.833Z,100916.80
2022-12-18T15:34:23.698Z,100915.60
2022-12-18T15:37:00.146Z,100916.00
2022-12-18T15:39:37.205Z,100921.60
2022-12-18T15:42:33.162Z,100926.60
2022-12-18T15:45:14.617Z,100933.00
2022-12-18T15:47:50.794Z,100942.40
2022-12-18T15:50:27.383Z,100942.00
2022-12-18T15:53:05.178Z,100940.60
2022-12-18T15:56:01.375Z,100942.40
2022-12-18T15:58:37.435Z,100944.80
2022-12-18T16:01:15.475Z,100938.60
2022-12-18T16:03:51.894Z,100943.40
2022-12-18T16:06:36.359Z,100949.80
2022-12-18T16:09:26.070Z,100952.00
2022-12-18T16:12:02.491Z,100952.80
2022-12-18T16:14:39.338Z,100948.40
2022-12-18T16:17:18.335Z,100954.20
2022-12-18T16:19:54.707Z,100958.40
2022-12-18T16:22:34.124Z,100961.00
2022-12-18T16:25:18.264Z,100963.00
2022-12-18T16:27:56.790Z,100965.40
2022-12-18T16:30:38.144Z,100966.20
2022-12-18T16:33:15.368Z,100969.40
2022-12-18T16:35:59.387Z,100971.40
2022-12-18T16:38:36.049Z,100970.60
2022-12-18T16:41:36.519Z,100975.00
2022-12-18T16:44:13.707Z,100980.20
2022-12-18T16:46:50.184Z,100981.80
2022-12-18T16:49:26.591Z,100983.40
2022-12-18T16:52:02.916Z,100987.20
2022-12-18T16:54:39.721Z,100988.60
2022-12-18T16:57:20.437Z,101001.60
2022-12-18T17:00:04.361Z,100997.00
2022-12-18T17:02:43.635Z,100991.60
2022-12-18T17:05:20.138Z,100992.40
2022-12-18T17:07:56.709Z,100985.80
2022-12-18T17:10:32.760Z,100985.60
2022-12-18T17:13:08.751Z,100984.00
2022-12-18T17:15:44.757Z,100987.60
2022-12-18T17:18:21.646Z,100987.20
2022-12-18T17:21:02.134Z,100989.20
2022-12-18T17:23:38.751Z,100990.40
2022-12-18T17:26:16.335Z,100983.00
2022-12-18T17:28:52.957Z,100978.60
2022-12-18T17:31:31.845Z,100978.80
2022-12-18T17:34:09.749Z,100978.00
2022-12-18T17:36:46.176Z,100981.00
2022-12-18T17:39:24.773Z,100976.20
2022-12-18T17:42:01.366Z,100964.40
2022-12-18T17:44:37.787Z,100961.80
2022-12-18T17:47:14.229Z,100962.20
2022-12-18T17:49:51.459Z,100952.80
2022-12-18T17:52:28.059Z,100954.20
2022-12-18T17:55:04.379Z,100952.40
2022-12-18T17:57:41.017Z,100948.60
2022-12-18T18:00:20.842Z,100952.00
2022-12-18T18:02:57.090Z,100951.00
2022-12-18T18:05:34.310Z,100944.20
2022-12-18T18:08:11.401Z,100947.40
2022-12-18T18:10:49.245Z,100945.80
2022-12-18T18:13:47.113Z,100948.20
2022-12-18T18:16:23.499Z,100951.80
2022-12-18T18:19:02.164Z,100948.80
2022-12-18T18:21:42.026Z,100952.00
2022-12-18T18:24:23.530Z,100951.40
2022-12-18T18:27:02.644Z,100956.60
2022-12-18T18:29:38.789Z,100956.80
2022-12-18T18:32:14.747Z,100962.80
2022-12-18T18:34:50.628Z,100967.00
2022-12-18T18:37:27.389Z,100973.40
2022-12-18T18:40:03.888Z,100984.60
2022-12-18T18:42:39.924Z,100985.80
2022-12-18T18:45:17.021Z,100982.00
2022-12-18T18:47:53.716Z,100969.00
2022-12-18T18:50:29.843Z,100963.60
2022-12-18T18:53:05.937Z,100968.20
2022-12-18T18:55:42.464Z,100983.80
2022-12-18T18:58:18.827Z,100988.20
2022-12-18T19:01:05.216Z,100983.40
2022-12-18T19:03:43.906Z,100970.20
2022-12-18T19:06:24.515Z,100966.40
2022-12-18T19:09:02.459Z,100968.40
2022-12-18T19:11:56.429Z,100968.00
2022-12-18T19:14:32.437Z,100971.60
2022-12-18T19:17:09.317Z,100973.00
2022-12-18T19:19:46.188Z,100974.40
2022-12-18T19:22:23.069Z,100969.60
2022-12-18T19:24:59.025Z,100963.00
2022-12-18T19:27:36.622Z,100969.80
2022-12-18T19:30:15.781Z,100983.60
2022-12-18T19:32:51.703Z,100979.00
2022-12-18T19:35:30.631Z,100987.60
2022-12-18T19:38:06.918Z,100991.20
2022-12-18T19:40:47.252Z,100988.60
2022-12-18T19:43:23.489Z,100990.20
2022-12-18T19:46:01.832Z,100989.80
2022-12-18T19:48:40.017Z,100997.40
2022-12-18T19:51:20.904Z,101005.80
2022-12-18T19:54:00.515Z,101004.80
2022-12-18T19:56:39.989Z,101001.20
2022-12-18T19:59:16.729Z,101007.20
2022-12-18T20:01:54.525Z,101010.60
2022-12-18T20:04:32.208Z,101015.00
2022-12-18T20:07:09.843Z,101016.40
2022-12-18T20:09:46.137Z,101016.80
2022-12-18T20:12:23.289Z,101016.80
2022-12-18T20:15:00.027Z,101013.40
2022-12-18T20:17:39.295Z,101012.00
2022-12-18T20:20:17.772Z,101012.00
2022-12-18T20:22:54.485Z,101004.00
2022-12-18T20:25:30.438Z,101008.40
2022-12-18T20:28:06.506Z,101016.80
2022-12-18T20:30:43.085Z,101027.80
2022-12-18T20:33:19.381Z,101030.20
2022-12-18T20:35:55.439Z,101023.80
2022-12-18T20:38:32.809Z,101022.20
2022-12-18T20:41:18.871Z,101027.80
2022-12-18T20:43:54.932Z,101029.00
2022-12-18T20:46:33.532Z,101027.00
2022-12-18T20:49:10.119Z,101021.20
2022-12-18T20:51:49.102Z,101012.20
2022-12-18T20:54:29.238Z,101010.00
2022-12-18T20:57:07.416Z,101003.60
2022-12-18T20:59:48.143Z,100999.40
2022-12-18T21:02:25.700Z,100998.00
2022-12-18T21:05:01.928Z,100995.00
2022-12-18T21:07:38.041Z,100991.20
2022-12-18T21:10:15.464Z,100989.80
2022-12-18T21:12:59.995Z,100978.80
2022-12-18T21:15:38.293Z,100974.20
2022-12-18T21:18:14.296Z,100966.00
2022-12-18T21:20:50.662Z,100966.80
2022-12-18T21:23:26.560Z,100968.60
2022-12-18T21:26:22.612Z,100973.80
2022-12-18T21:29:02.925Z,100984.20
2022-12-18T21:31:43.486Z,100985.60
2022-12-18T21:34:25.526Z,100976.80
2022-12-18T21:37:03.924Z,100975.00
2022-12-18T21:39:40.120Z,100973.60
2022-12-18T21:42:34.801Z,100962.80
2022-12-18T21:45:13.236Z,100959.60
2022-12-18T21:47:49.157Z,100954.20
2022-12-18T21:50:25.130Z,100950.40
2022-12-18T21:53:01.285Z,100954.80
2022-12-18T21:55:37.149Z,100949.00
2022-12-18T21:58:13.176Z,100947.60
2022-12-18T22:00:50.620Z,100944.80
2022-12-18T22:03:27.014Z,100946.80
2022-12-18T22:06:09.283Z,100943.20
2022-12-18T22:08:46.155Z,100941.00
2022-12-18T22:11:22.236Z,100940.00
2022-12-18T22:13:59.286Z,100942.40
2022-12-18T22:16:35.287Z,100939.80
2022-12-18T22:19:13.144Z,100943.60
2022-12-18T22:21:52.897Z,100946.40
2022-12-18T22:24:30.424Z,100952.00
2022-12-18T22:27:06.466Z,100950.80
2022-12-18T22:30:00.158Z,100951.40
2022-12-18T22:32:37.580Z,100956.20
2022-12-18T22:35:16.244Z,100954.40
2022-12-18T22:37:52.366Z,100944.80
2022-12-18T22:40:30.073Z,100942.60
2022-12-18T22:43:06.426Z,100941.40
2022-12-18T22:45:42.479Z,100941.60
2022-12-18T22:48:18.563Z,100938.40
2022-12-18T22:50:58.981Z,100930.80
2022-12-18T22:53:35.576Z,100931.80
2022-12-18T22:56:18.669Z,100935.60
2022-12-18T22:58:58.335Z,100934.60
2022-12-18T23:01:36.190Z,100930.20
2022-12-18T23:04:15.236Z,100934.00
2022-12-18T23:06:51.404Z,100939.40
2022-12-18T23:09:27.163Z,100934.00
2022-12-18T23:12:03.671Z,100922.60
2022-12-18T23:14:39.519Z,100923.40
2022-12-18T23:17:15.678Z,100926.00
2022-12-18T23:19:51.763Z,100929.00
2022-12-18T23:22:27.743Z,100927.60
2022-12-18T23:25:03.530Z,100928.20
2022-12-18T23:27:39.588Z,100933.20
2022-12-18T23:30:17.779Z,100929.40
2022-12-18T23:32:53.811Z,100923.20
2022-12-18T23:35:30.632Z,100922.60
2022-12-18T23:38:07.201Z,100928.20
2022-12-18T23:40:43.157Z,100926.00
2022-12-18T23:43:22.036Z,100928.60
2022-12-18T23:45:58.085Z,100930.80
2022-12-18T23:48:33.941Z,100934.40
2022-12-18T23:51:15.097Z,100932.60
2022-12-18T23:53:51.305Z,100935.60
2022-12-18T23:56:28.851Z,100938.60
2022-12-18T23:59:04.857Z,100932.40
